Beattie, Kansas
Current Conditions -  °F | °C
As of 6:15 AM on Friday 24 Oct 2014 (Local Time) from KMYZ Reporting Station
Clear Clear  
Wind Chill: 57°   Ceiling: Unl
Heat Index: 57°   Visibility: 7mi
Dew Point: 57°   Wind: 9mph
Humidity: 100%   Direction: 190°S
Pressure: 29.99"   Gusts: NA
Location:  39.86°N, 96.42°W
Report Text: KMYZ 241115Z AUTO 19008KT 7SM CLR 14/14 A2999 RMK AO2
Loading
Personal Weather Stations






























Interactive Weather Map
Tropical Storm Tracking
New forecast layout! Learn more

10-Day Weather Forecast

Advertisements
Track Severe Weather on mobile